Time;durP1;ratioP1;P1;durP2;ratioP2;P2;SDS_P1;SDS_P2;PMS_P1;PMS_P2;Temp;Humidity;BMP_temperature;BMP_pressure;BME280_temperature;BME280_humidity;BME280_pressure;Samples;Min_cycle;Max_cycle;Signal;HPM_P1;HPM_P2
2022/11/25 00:01:37;;;;;;;9.70;2.25;;;13.70;99.90;;;;;;5112291;28;20114;-77
2022/11/25 00:04:04;;;;;;;16.45;2.70;;;13.70;99.90;;;;;;5112335;28;20039;-77
2022/11/25 00:06:33;;;;;;;12.20;2.58;;;13.70;99.90;;;;;;5096213;28;20036;-77
2022/11/25 00:09:04;;;;;;;11.77;2.53;;;13.60;99.90;;;;;;5092223;28;20028;-77
2022/11/25 00:11:35;;;;;;;9.93;1.90;;;13.60;99.90;;;;;;5090145;28;20028;-77
2022/11/25 00:14:05;;;;;;;15.13;2.38;;;13.50;99.90;;;;;;5074426;28;20431;-77
2022/11/25 00:16:31;;;;;;;17.05;2.85;;;13.50;99.90;;;;;;5111677;28;20509;-77
2022/11/25 00:18:58;;;;;;;17.35;2.38;;;13.50;99.90;;;;;;5052459;28;20032;-77
2022/11/25 00:21:27;;;;;;;15.63;2.20;;;13.50;99.90;;;;;;5068657;28;20063;-78
2022/11/25 00:24:00;;;;;;;19.23;2.85;;;13.50;99.90;;;;;;5069226;28;20033;-77
2022/11/25 00:26:28;;;;;;;14.43;2.50;;;13.50;99.90;;;;;;5069394;28;20032;-77
2022/11/25 00:28:56;;;;;;;13.82;2.30;;;13.50;99.90;;;;;;5047166;28;20063;-77
2022/11/25 00:31:25;;;;;;;14.40;2.53;;;13.50;99.90;;;;;;5050957;28;20060;-77
2022/11/25 00:33:53;;;;;;;13.73;2.47;;;13.50;99.90;;;;;;5069077;28;20091;-77
2022/11/25 00:36:25;;;;;;;9.00;2.08;;;13.40;99.90;;;;;;5069195;28;20476;-77
2022/11/25 00:38:57;;;;;;;14.00;2.72;;;13.40;99.90;;;;;;5069360;28;20036;-77
2022/11/25 00:44:35;;;;;;;15.82;2.30;;;13.40;99.90;;;;;;5069404;28;20185;-77
2022/11/25 00:47:21;;;;;;;11.05;3.15;;;13.50;99.90;;;;;;5068795;28;20029;-77
2022/11/25 00:49:49;;;;;;;16.85;1.88;;;13.50;99.90;;;;;;5087291;28;20036;-78
2022/11/25 00:52:17;;;;;;;17.42;2.60;;;13.50;99.90;;;;;;5112061;28;20027;-78
2022/11/25 00:54:45;;;;;;;9.27;1.88;;;13.50;99.90;;;;;;5111492;28;20027;-77
2022/11/25 00:57:14;;;;;;;13.90;2.00;;;13.50;99.90;;;;;;5111574;28;20388;-77
2022/11/25 00:59:40;;;;;;;17.50;2.13;;;13.60;99.90;;;;;;5111566;28;20076;-77
2022/11/25 01:02:07;;;;;;;13.27;2.30;;;13.50;99.90;;;;;;5106470;28;20452;-77
2022/11/25 01:04:33;;;;;;;11.55;1.80;;;13.60;99.90;;;;;;5091371;28;20254;-78
2022/11/25 01:07:01;;;;;;;14.18;2.20;;;13.60;99.90;;;;;;5091126;28;20077;-77
2022/11/25 01:09:27;;;;;;;13.75;2.13;;;13.70;99.90;;;;;;5090873;28;20032;-77
2022/11/25 01:11:53;;;;;;;;;;;13.70;99.90;;;;;;5091343;28;20424;-77
2022/11/25 01:14:20;;;;;;;13.70;2.40;;;13.60;99.90;;;;;;5090902;28;20371;-77
2022/11/25 01:16:51;;;;;;;15.60;2.20;;;13.50;99.90;;;;;;5090994;28;20114;-78
2022/11/25 01:19:18;;;;;;;13.52;1.98;;;13.50;99.90;;;;;;5091221;28;20032;-77
2022/11/25 01:21:45;;;;;;;;;;;13.50;99.90;;;;;;5091540;28;20032;-78
2022/11/25 01:24:14;;;;;;;14.43;1.83;;;13.40;99.90;;;;;;5094530;28;19904;-77
2022/11/25 01:26:41;;;;;;;9.73;1.63;;;13.30;99.90;;;;;;5094820;28;20114;-77
2022/11/25 01:29:16;;;;;;;10.85;2.05;;;13.30;99.90;;;;;;5059811;28;20111;-77
2022/11/25 01:31:43;;;;;;;12.50;1.80;;;13.40;99.90;;;;;;5095099;28;20106;-77
2022/11/25 01:34:20;;;;;;;13.18;2.00;;;13.40;99.90;;;;;;5094681;28;20036;-76
2022/11/25 01:36:46;;;;;;;7.35;1.85;;;13.40;99.90;;;;;;5076743;28;20033;-77
2022/11/25 01:39:20;;;;;;;12.30;2.17;;;13.30;99.90;;;;;;5076372;28;20024;-77
2022/11/25 01:41:47;;;;;;;9.65;1.92;;;13.30;99.90;;;;;;5094788;28;20027;-77
2022/11/25 01:44:14;;;;;;;;;;;13.20;99.90;;;;;;5094998;28;20028;-78
2022/11/25 01:46:58;;;;;;;14.48;2.38;;;13.10;99.90;;;;;;5095076;28;19993;-77
2022/11/25 01:49:45;;;;;;;9.95;2.05;;;13.10;99.90;;;;;;5076420;28;20089;-77
2022/11/25 01:52:17;;;;;;;11.38;1.92;;;13.10;99.90;;;;;;5094684;28;20356;-77
2022/11/25 01:54:55;;;;;;;13.43;1.95;;;13.10;99.90;;;;;;5094325;28;20036;-77
2022/11/25 01:57:29;;;;;;;12.32;1.95;;;13.10;99.90;;;;;;5094651;28;20028;-78
2022/11/25 01:59:59;;;;;;;12.85;2.00;;;13.10;99.90;;;;;;5075944;28;20024;-77
2022/11/25 02:02:27;;;;;;;11.60;2.30;;;13.20;99.90;;;;;;5094521;28;20123;-77
2022/11/25 02:04:54;;;;;;;12.60;1.98;;;13.20;99.90;;;;;;5076012;28;20494;-77
2022/11/25 02:07:37;;;;;;;9.32;1.58;;;13.10;99.90;;;;;;5094119;28;20043;-77
2022/11/25 02:10:13;;;;;;;14.95;2.17;;;13.10;99.90;;;;;;5094403;28;20095;-77
2022/11/25 02:12:46;;;;;;;10.35;2.20;;;13.00;99.90;;;;;;5093982;28;20129;-77
2022/11/25 02:15:15;;;;;;;15.35;1.60;;;13.00;99.90;;;;;;5111216;28;20475;-77
2022/11/25 02:17:50;;;;;;;10.10;1.95;;;13.10;99.90;;;;;;5097050;28;20119;-77
2022/11/25 02:20:21;;;;;;;16.30;2.05;;;13.00;99.90;;;;;;5114289;28;20533;-76
2022/11/25 02:23:36;;;;;;;11.88;2.08;;;12.90;99.90;;;;;;5114128;28;20122;-77
2022/11/25 02:26:04;;;;;;;12.55;1.88;;;12.90;99.90;;;;;;5114317;28;20064;-77
2022/11/25 02:28:32;;;;;;;16.08;1.95;;;13.00;99.90;;;;;;5113944;28;20038;-77
2022/11/25 02:31:05;;;;;;;10.50;1.85;;;13.10;99.90;;;;;;5114451;28;20492;-77
2022/11/25 02:33:32;;;;;;;13.70;1.90;;;13.20;99.90;;;;;;5113682;28;20028;-77
2022/11/25 02:36:01;;;;;;;9.80;1.98;;;13.20;99.90;;;;;;5113840;28;20552;-77
2022/11/25 02:38:42;;;;;;;10.35;1.75;;;13.20;99.90;;;;;;5113911;28;20026;-77
2022/11/25 02:41:18;;;;;;;17.67;2.35;;;13.20;99.90;;;;;;5113950;28;20024;-77
2022/11/25 02:43:47;;;;;;;9.30;1.42;;;13.20;99.90;;;;;;5095692;28;20047;-77
2022/11/25 02:46:16;;;;;;;12.85;1.95;;;13.30;99.90;;;;;;5113536;28;20016;-78
2022/11/25 02:48:44;;;;;;;13.63;1.83;;;13.30;99.90;;;;;;5114119;28;20027;-77
2022/11/25 02:51:15;;;;;;;10.13;1.75;;;13.40;99.90;;;;;;5113630;28;20031;-76
2022/11/25 02:53:41;;;;;;;10.43;1.75;;;13.40;99.90;;;;;;5113405;28;20500;-76
2022/11/25 02:56:12;;;;;;;12.05;1.58;;;13.40;99.90;;;;;;5113692;28;20432;-77
2022/11/25 02:58:39;;;;;;;11.95;2.15;;;13.40;99.90;;;;;;5113631;28;20020;-77
2022/11/25 03:01:05;;;;;;;20.20;2.85;;;13.40;99.90;;;;;;5095111;28;20031;-77
2022/11/25 03:03:32;;;;;;;10.95;1.40;;;13.40;99.90;;;;;;5113235;28;20044;-78
2022/11/25 03:06:00;;;;;;;13.75;1.95;;;13.40;99.90;;;;;;5113746;28;20342;-77
2022/11/25 03:08:26;;;;;;;9.98;1.65;;;13.40;99.90;;;;;;5113015;28;20027;-77
2022/11/25 03:10:52;;;;;;;10.37;1.47;;;13.40;99.90;;;;;;5113500;28;20535;-77
2022/11/25 03:13:18;;;;;;;13.73;1.80;;;13.50;99.90;;;;;;5113246;28;20055;-78
2022/11/25 03:15:44;;;;;;;5.97;1.47;;;13.40;99.90;;;;;;5113307;28;20068;-77
2022/11/25 03:18:11;;;;;;;15.45;2.15;;;13.30;99.90;;;;;;5113040;28;20289;-77
2022/11/25 03:20:37;;;;;;;;;;;13.40;99.90;;;;;;5095148;28;20069;-77
2022/11/25 03:23:06;;;;;;;12.48;2.00;;;13.40;99.90;;;;;;5094614;28;19954;-76
2022/11/25 03:25:33;;;;;;;8.45;1.42;;;13.40;99.90;;;;;;5113218;28;20027;-77
2022/11/25 03:28:00;;;;;;;12.32;2.03;;;13.50;99.90;;;;;;5113391;28;20023;-76
2022/11/25 03:30:28;;;;;;;12.95;1.92;;;13.40;99.90;;;;;;5113030;28;20107;-77
2022/11/25 03:32:58;;;;;;;11.38;2.20;;;13.30;99.90;;;;;;5113033;28;20032;-77
2022/11/25 03:35:24;;;;;;;9.75;2.25;;;13.20;99.90;;;;;;5094667;28;20088;-77
2022/11/25 03:37:51;;;;;;;17.88;2.10;;;13.20;99.90;;;;;;5112967;28;20030;-77
2022/11/25 03:40:18;;;;;;;10.43;1.80;;;13.20;99.90;;;;;;5131589;27;20038;-78
2022/11/25 03:42:47;;;;;;;11.13;2.35;;;13.30;99.90;;;;;;5133422;27;20507;-77
2022/11/25 03:45:15;;;;;;;12.57;1.80;;;13.30;99.90;;;;;;5132318;27;20440;-77
2022/11/25 03:47:43;;;;;;;13.88;1.88;;;13.30;99.90;;;;;;5132680;27;20331;-76
2022/11/25 03:50:11;;;;;;;10.95;1.63;;;13.30;99.90;;;;;;5132332;27;20055;-77
2022/11/25 03:52:38;;;;;;;8.70;1.67;;;13.30;99.90;;;;;;5132596;27;20120;-77
2022/11/25 03:55:05;;;;;;;11.27;1.52;;;13.20;99.90;;;;;;5132613;27;20124;-77
2022/11/25 03:57:32;;;;;;;11.77;2.20;;;13.20;99.90;;;;;;5133041;27;20031;-77
2022/11/25 04:00:00;;;;;;;13.27;1.70;;;13.20;99.90;;;;;;5133143;27;20051;-77
2022/11/25 04:02:27;;;;;;;11.38;1.95;;;13.20;99.90;;;;;;5132515;27;20051;-77
2022/11/25 04:04:55;;;;;;;16.60;2.10;;;13.20;99.90;;;;;;5132558;27;20019;-77
2022/11/25 04:07:21;;;;;;;11.27;1.75;;;13.30;99.90;;;;;;5132742;27;20486;-77
2022/11/25 04:09:47;;;;;;;10.70;2.30;;;13.20;99.90;;;;;;5133770;27;20058;-77
2022/11/25 04:14:58;;;;;;;11.80;1.88;;;13.10;99.90;;;;;;5133410;27;20084;-77
2022/11/25 04:17:24;;;;;;;;;;;13.10;99.90;;;;;;5133837;27;20500;-77
2022/11/25 04:19:50;;;;;;;12.23;1.83;;;13.10;99.90;;;;;;5133044;27;19953;-76
2022/11/25 04:22:16;;;;;;;11.05;1.40;;;13.10;99.90;;;;;;5132653;27;20027;-77
2022/11/25 04:24:43;;;;;;;14.70;2.10;;;13.10;99.90;;;;;;5133313;27;20118;-76
2022/11/25 04:27:09;;;;;;;11.77;1.83;;;13.20;99.90;;;;;;5133666;27;20100;-77
2022/11/25 04:29:35;;;;;;;10.17;1.80;;;13.20;99.90;;;;;;5133439;27;20040;-77
2022/11/25 04:32:04;;;;;;;13.70;2.38;;;13.20;99.90;;;;;;5133173;27;20103;-76
2022/11/25 04:34:31;;;;;;;10.60;1.70;;;13.30;99.90;;;;;;5132767;27;20031;-76
2022/11/25 04:36:57;;;;;;;;;;;13.30;99.90;;;;;;5133854;27;20126;-77
2022/11/25 04:39:23;;;;;;;10.40;1.85;;;13.30;99.90;;;;;;5133154;27;19910;-76
2022/11/25 04:42:30;;;;;;;8.13;1.40;;;13.40;99.90;;;;;;5132877;27;20352;-77
2022/11/25 04:44:37;;;;;;;12.52;1.83;;;13.40;99.90;;;;;;5132987;27;20035;-77
2022/11/25 04:47:03;;;;;;;11.68;1.63;;;13.40;99.90;;;;;;5133409;27;20046;-75
2022/11/25 04:49:31;;;;;;;15.55;2.20;;;13.40;99.90;;;;;;5132079;27;20031;-77
2022/11/25 04:51:58;;;;;;;11.43;2.13;;;13.40;99.90;;;;;;5132875;27;20032;-77
2022/11/25 04:54:24;;;;;;;10.03;1.70;;;13.50;99.90;;;;;;5133310;27;20015;-77
2022/11/25 04:56:50;;;;;;;13.27;2.05;;;13.40;99.90;;;;;;5132895;27;20031;-77
2022/11/25 05:02:21;;;;;;;10.65;1.88;;;13.30;99.90;;;;;;5132646;27;20049;-76
2022/11/25 05:04:49;;;;;;;15.57;2.35;;;13.30;99.90;;;;;;5133495;27;20068;-77
2022/11/25 05:07:23;;;;;;;12.55;1.77;;;13.30;99.90;;;;;;5132818;28;20043;-77
2022/11/25 05:09:50;;;;;;;9.05;1.70;;;13.30;99.90;;;;;;5132733;28;20060;-75
2022/11/25 05:12:19;;;;;;;11.23;1.80;;;13.30;99.90;;;;;;5105599;28;20058;-72
2022/11/25 05:14:48;;;;;;;13.98;2.22;;;13.30;99.90;;;;;;5089316;28;20111;-74
2022/11/25 05:17:16;;;;;;;11.63;1.95;;;13.30;99.90;;;;;;5100411;28;20063;-76
2022/11/25 05:19:46;;;;;;;9.80;1.55;;;13.20;99.90;;;;;;5108228;28;20020;-76
2022/11/25 05:22:18;;;;;;;11.70;1.60;;;13.20;99.90;;;;;;5106438;28;20023;-76
2022/11/25 05:24:44;;;;;;;16.85;2.85;;;13.20;99.90;;;;;;5096012;28;20024;-73
2022/11/25 05:27:10;;;;;;;;;;;13.10;99.90;;;;;;5092906;28;20055;-75
2022/11/25 05:29:37;;;;;;;13.85;1.90;;;13.10;99.90;;;;;;5092851;28;19904;-77
2022/11/25 05:32:04;;;;;;;10.02;1.35;;;13.00;99.90;;;;;;5092812;28;20114;-77
2022/11/25 05:34:32;;;;;;;13.48;1.88;;;13.00;99.90;;;;;;5092268;28;20035;-79
2022/11/25 05:36:59;;;;;;;11.55;2.28;;;13.00;99.90;;;;;;5092925;28;20016;-77
2022/11/25 05:39:24;;;;;;;;;;;13.00;99.90;;;;;;5092722;28;20035;-77
2022/11/25 05:41:50;;;;;;;13.15;2.42;;;12.90;99.90;;;;;;5092807;28;19912;-75
2022/11/25 05:44:18;;;;;;;13.73;1.57;;;12.90;99.90;;;;;;5074144;28;20028;-77
2022/11/25 05:46:46;;;;;;;11.02;1.98;;;13.00;99.90;;;;;;5105871;28;20028;-77
2022/11/25 05:49:17;;;;;;;13.48;1.92;;;13.00;99.90;;;;;;5094492;28;20036;-77
2022/11/25 05:51:44;;;;;;;10.68;2.05;;;13.10;99.90;;;;;;5112989;28;20023;-78
2022/11/25 05:54:10;;;;;;;11.75;1.95;;;13.10;99.90;;;;;;5112522;28;20031;-78
2022/11/25 05:56:37;;;;;;;15.50;2.40;;;13.10;99.90;;;;;;5113175;28;20030;-77
2022/11/25 05:59:04;;;;;;;6.50;1.60;;;13.10;99.90;;;;;;5112333;28;20024;-77
2022/11/25 06:01:32;;;;;;;11.35;2.15;;;13.10;99.90;;;;;;5089437;28;20118;-78
2022/11/25 06:04:02;;;;;;;10.90;1.83;;;13.10;99.90;;;;;;5126037;28;20039;-77
2022/11/25 06:06:28;;;;;;;17.27;2.05;;;13.10;99.90;;;;;;5132343;28;20115;-77
2022/11/25 06:08:55;;;;;;;11.77;2.20;;;13.20;99.90;;;;;;5133185;27;20037;-78
2022/11/25 06:11:27;;;;;;;12.40;1.73;;;13.20;99.90;;;;;;5136305;27;20050;-78
2022/11/25 06:13:57;;;;;;;18.10;2.10;;;13.30;99.90;;;;;;5136007;27;20027;-78
2022/11/25 06:16:23;;;;;;;14.48;2.15;;;13.50;99.90;;;;;;5134393;27;20106;-75
2022/11/25 06:18:49;;;;;;;;;;;13.80;99.90;;;;;;5116337;28;20031;-79
2022/11/25 06:21:20;;;;;;;13.48;2.00;;;14.30;99.90;;;;;;5115865;28;19918;-75
2022/11/25 06:23:47;;;;;;;11.73;2.03;;;14.90;99.90;;;;;;5112077;28;20598;-80
2022/11/25 06:26:21;;;;;;;9.15;1.95;;;15.60;99.90;;;;;;5080030;28;20050;-81
2022/11/25 06:28:54;;;;;;;12.63;2.00;;;16.50;99.90;;;;;;5094502;28;20084;-81
2022/11/25 06:31:23;;;;;;;9.55;1.98;;;16.70;99.90;;;;;;5094736;28;20020;-83
2022/11/25 06:33:50;;;;;;;11.98;2.63;;;17.10;99.90;;;;;;5094567;28;20028;-81
2022/11/25 06:36:18;;;;;;;11.77;2.22;;;17.10;99.90;;;;;;5094345;28;20071;-80
2022/11/25 06:38:46;;;;;;;14.02;2.30;;;17.40;99.90;;;;;;5075713;28;20082;-73
2022/11/25 06:41:13;;;;;;;12.10;2.20;;;17.50;99.90;;;;;;5093815;28;20048;-82
2022/11/25 06:43:39;;;;;;;;;;;18.10;99.90;;;;;;5094287;28;20100;-83
2022/11/25 06:46:13;;;;;;;10.23;1.92;;;18.50;99.90;;;;;;5093552;28;20093;-82
2022/11/25 06:48:40;;;;;;;10.60;1.77;;;18.70;99.90;;;;;;5093947;28;20055;-83
2022/11/25 06:51:09;;;;;;;10.30;2.05;;;19.00;99.90;;;;;;5093574;28;20032;-84
2022/11/25 06:53:36;;;;;;;15.27;2.28;;;19.70;99.90;;;;;;5092933;28;20020;-84
2022/11/25 06:56:15;;;;;;;15.80;2.78;;;20.00;99.90;;;;;;5093238;28;20107;-86
2022/11/25 06:58:47;;;;;;;13.77;2.25;;;20.10;99.90;;;;;;5093448;28;20483;-83
2022/11/25 07:01:15;;;;;;;9.20;2.30;;;20.50;99.90;;;;;;5092961;28;20020;-84
2022/11/25 07:03:42;;;;;;;15.07;2.15;;;20.90;99.90;;;;;;5074310;28;20047;-84
2022/11/25 07:06:13;;;;;;;11.27;2.33;;;21.10;99.90;;;;;;5093919;28;20035;-84
2022/11/25 07:08:39;;;;;;;13.30;2.40;;;21.50;99.90;;;;;;5058520;28;20388;-84
2022/11/25 07:11:41;;;;;;;11.73;2.13;;;21.40;99.90;;;;;;5092499;28;20028;-83
2022/11/25 07:14:11;;;;;;;12.05;2.17;;;20.80;99.90;;;;;;5010899;28;20029;-83
2022/11/25 07:16:39;;;;;;;12.20;2.70;;;21.20;99.90;;;;;;5011424;28;20037;-83
2022/11/25 07:19:20;;;;;;;12.00;2.25;;;21.60;99.90;;;;;;5012089;28;20034;-83
2022/11/25 07:21:46;;;;;;;11.73;2.30;;;21.50;99.90;;;;;;5010845;28;20483;-84
2022/11/25 07:24:17;;;;;;;14.07;2.30;;;22.20;99.90;;;;;;5011590;28;20075;-83
2022/11/25 07:26:44;;;;;;;15.20;2.65;;;22.50;99.90;;;;;;5011951;28;20101;-83
2022/11/25 07:29:13;;;;;;;11.63;2.40;;;23.10;99.90;;;;;;4994983;28;20089;-83
2022/11/25 07:31:42;;;;;;;11.68;2.72;;;23.10;99.90;;;;;;4995226;28;20518;-84
2022/11/25 07:34:16;;;;;;;10.38;2.50;;;22.40;99.90;;;;;;5011211;28;20033;-84
2022/11/25 07:36:43;;;;;;;14.73;2.67;;;21.70;99.90;;;;;;5011602;28;20088;-86
2022/11/25 07:39:16;;;;;;;13.82;2.95;;;20.80;99.90;;;;;;4994781;28;20509;-84
2022/11/25 07:41:42;;;;;;;13.50;2.75;;;20.10;99.90;;;;;;5011501;28;20057;-79
2022/11/25 07:44:11;;;;;;;13.98;2.72;;;19.40;99.90;;;;;;4995722;28;20426;-83
2022/11/25 07:46:51;;;;;;;17.08;2.65;;;19.00;99.90;;;;;;5010843;28;20030;-85
2022/11/25 07:49:20;;;;;;;17.42;2.72;;;18.90;99.90;;;;;;5073040;28;20048;-83
2022/11/25 07:51:52;;;;;;;12.82;2.83;;;18.50;99.90;;;;;;5073058;28;20078;-84
2022/11/25 07:54:36;;;;;;;16.52;2.80;;;18.30;99.90;;;;;;5072973;28;20097;-84
2022/11/25 07:57:02;;;;;;;13.73;2.50;;;18.20;99.90;;;;;;5054805;28;20016;-83
2022/11/25 07:59:29;;;;;;;15.07;2.25;;;17.80;99.90;;;;;;5072783;28;20031;-83
2022/11/25 08:01:55;;;;;;;15.20;2.55;;;17.80;99.90;;;;;;5054515;28;20119;-83
2022/11/25 08:04:22;;;;;;;11.20;2.17;;;17.80;99.90;;;;;;5073201;28;20537;-82
2022/11/25 08:06:50;;;;;;;20.55;3.25;;;17.80;99.90;;;;;;5056442;28;20024;-82
2022/11/25 08:09:20;;;;;;;13.18;2.22;;;17.70;99.90;;;;;;5072913;28;20035;-82
2022/11/25 08:11:49;;;;;;;16.05;2.50;;;17.50;99.90;;;;;;5072318;28;20028;-82
2022/11/25 08:14:43;;;;;;;12.60;2.15;;;17.50;99.90;;;;;;5072790;28;20423;-82
2022/11/25 08:17:10;;;;;;;16.73;2.15;;;17.10;99.90;;;;;;5072368;28;20029;-82
2022/11/25 08:19:37;;;;;;;18.17;2.88;;;16.90;99.90;;;;;;5072698;28;20099;-82
2022/11/25 08:22:03;;;;;;;17.27;2.60;;;16.70;99.90;;;;;;5072628;28;20025;-82
2022/11/25 08:24:29;;;;;;;16.17;2.75;;;16.60;99.90;;;;;;5072641;28;20115;-82
2022/11/25 08:27:00;;;;;;;15.00;2.67;;;16.40;99.90;;;;;;5072205;28;20029;-82
2022/11/25 08:29:27;;;;;;;20.25;2.40;;;16.40;99.90;;;;;;5072192;28;20056;-81
2022/11/25 08:31:54;;;;;;;12.73;2.55;;;16.40;99.90;;;;;;5071893;28;20024;-81
2022/11/25 08:34:24;;;;;;;17.17;2.75;;;16.30;99.90;;;;;;5072234;28;20028;-81
2022/11/25 08:36:51;;;;;;;13.82;2.75;;;16.40;99.90;;;;;;5053927;28;20067;-80
2022/11/25 08:39:24;;;;;;;14.02;3.08;;;16.60;99.90;;;;;;5053413;28;20377;-80
2022/11/25 08:41:52;;;;;;;16.20;2.60;;;16.70;99.90;;;;;;5071757;28;20074;-80
2022/11/25 08:44:18;;;;;;;14.38;2.78;;;16.80;99.90;;;;;;5072115;28;20103;-80
2022/11/25 08:46:45;;;;;;;12.52;2.20;;;16.90;99.90;;;;;;5071679;28;20016;-79
2022/11/25 08:49:13;;;;;;;16.75;2.72;;;17.00;99.90;;;;;;5071535;28;20115;-79
2022/11/25 08:51:41;;;;;;;13.02;2.35;;;17.00;99.90;;;;;;5071581;28;20092;-80
2022/11/25 08:54:08;;;;;;;16.95;2.83;;;16.90;99.90;;;;;;5053320;28;20082;-80
2022/11/25 08:56:36;;;;;;;16.80;2.63;;;17.00;99.90;;;;;;5070968;28;20448;-80
2022/11/25 08:59:03;;;;;;;13.45;2.38;;;17.10;99.90;;;;;;5071110;28;20037;-79
2022/11/25 09:01:30;;;;;;;17.42;3.10;;;17.20;99.90;;;;;;5071085;28;20020;-79
2022/11/25 09:03:57;;;;;;;13.13;2.67;;;17.30;99.90;;;;;;5053390;28;20036;-80
2022/11/25 09:06:25;;;;;;;17.63;2.88;;;17.20;99.90;;;;;;5053556;28;20114;-79
2022/11/25 09:08:57;;;;;;;13.07;2.70;;;17.20;99.90;;;;;;5071392;28;20028;-79
2022/11/25 09:11:27;;;;;;;12.00;2.20;;;17.20;99.90;;;;;;5071882;28;20118;-79
2022/11/25 09:13:53;;;;;;;14.52;2.35;;;17.30;99.90;;;;;;5071001;28;20032;-79
2022/11/25 09:16:19;;;;;;;15.45;2.13;;;17.40;99.90;;;;;;5071726;28;20181;-80
2022/11/25 09:18:46;;;;;;;15.80;2.40;;;17.40;99.90;;;;;;5071695;28;20017;-78
2022/11/25 09:21:17;;;;;;;10.82;2.38;;;17.40;99.90;;;;;;5072317;28;20123;-78
2022/11/25 09:23:45;;;;;;;11.90;1.90;;;17.40;99.90;;;;;;5071489;28;20033;-78
2022/11/25 09:26:31;;;;;;;20.50;2.53;;;17.50;99.90;;;;;;5053398;28;20028;-78
2022/11/25 09:28:57;;;;;;;19.67;2.55;;;17.50;99.90;;;;;;5053331;28;20099;-78
2022/11/25 09:31:23;;;;;;;10.43;2.28;;;17.60;99.90;;;;;;5071444;28;20103;-78
2022/11/25 09:33:49;;;;;;;;;;;17.60;99.90;;;;;;5053613;28;20464;-80
2022/11/25 09:36:18;;;;;;;16.83;3.10;;;17.80;99.90;;;;;;5052952;28;19923;-78
2022/11/25 09:38:44;;;;;;;15.30;2.83;;;18.10;99.90;;;;;;5072157;28;20020;-78
2022/11/25 09:47:16;;;;;;;14.25;2.80;;;18.00;99.90;;;;;;5073719;28;20047;-78
2022/11/25 09:50:03;;;;;;;18.05;2.72;;;17.80;99.90;;;;;;5074779;28;20556;-77
2022/11/25 09:52:45;;;;;;;14.38;2.75;;;17.80;99.90;;;;;;5074896;28;20060;-78
2022/11/25 09:55:16;;;;;;;15.15;4.40;;;18.20;99.90;;;;;;5074944;28;20024;-79
2022/11/25 09:58:12;;;;;;;14.18;2.90;;;18.60;99.90;;;;;;5074782;28;20016;-77
2022/11/25 10:00:43;;;;;;;12.80;2.60;;;19.00;99.90;;;;;;5074280;28;20031;-76
2022/11/25 10:03:15;;;;;;;17.85;3.00;;;19.10;99.90;;;;;;5074174;28;20492;-77
2022/11/25 10:05:49;;;;;;;14.55;2.55;;;19.30;99.90;;;;;;5057162;28;20078;-75
2022/11/25 10:08:26;;;;;;;16.70;2.92;;;19.50;99.90;;;;;;5074706;28;20496;-75
2022/11/25 10:11:16;;;;;;;9.00;2.47;;;19.70;99.90;;;;;;5072641;28;20495;-76
2022/11/25 10:13:48;;;;;;;15.20;3.13;;;20.00;99.90;;;;;;5073827;28;20437;-76
2022/11/25 10:16:44;;;;;;;17.15;2.85;;;20.20;99.90;;;;;;5073677;28;20035;-77
2022/11/25 10:19:40;;;;;;;20.85;2.72;;;20.30;99.90;;;;;;5011712;28;20482;-77
2022/11/25 10:22:36;;;;;;;15.85;2.28;;;20.30;99.90;;;;;;5012737;28;20034;-77
2022/11/25 10:25:14;;;;;;;12.50;2.40;;;20.40;99.90;;;;;;5012653;28;20482;-77
2022/11/25 10:28:00;;;;;;;11.52;2.08;;;20.50;99.90;;;;;;5011821;28;20022;-78
2022/11/25 10:31:03;;;;;;;10.07;2.10;;;20.60;99.90;;;;;;5011964;28;20105;-77
2022/11/25 10:33:44;;;;;;;10.88;2.28;;;20.70;99.90;;;;;;5011346;28;20107;-77
2022/11/25 10:36:28;;;;;;;13.70;2.38;;;21.00;99.90;;;;;;5028635;28;20045;-77
2022/11/25 10:39:18;;;;;;;13.10;2.42;;;21.00;99.90;;;;;;5032442;28;20032;-77
2022/11/25 10:41:52;;;;;;;11.25;2.15;;;21.00;99.90;;;;;;5032473;28;20032;-84
2022/11/25 10:44:47;;;;;;;13.70;2.15;;;20.80;99.90;;;;;;5032284;28;20041;-75
2022/11/25 10:47:43;;;;;;;18.35;2.85;;;20.90;99.90;;;;;;4973146;28;20035;-79
2022/11/25 10:50:30;;;;;;;;;;;20.90;99.90;;;;;;4972842;28;20042;-78
2022/11/25 10:53:23;;;;;;;13.23;2.40;;;20.90;99.90;;;;;;4973165;28;19914;-78
2022/11/25 10:56:04;;;;;;;16.50;2.72;;;21.00;99.90;;;;;;4986361;28;20123;-80
2022/11/25 10:58:34;;;;;;;13.65;2.33;;;20.90;99.90;;;;;;5031349;28;20049;-81
2022/11/25 11:01:24;;;;;;;14.18;2.97;;;21.00;99.90;;;;;;5031481;28;20474;-80
2022/11/25 11:04:08;;;;;;;10.90;2.38;;;21.10;99.90;;;;;;5015357;28;20510;-82
2022/11/25 11:06:41;;;;;;;13.25;2.67;;;21.00;99.90;;;;;;5032466;28;20354;-80
2022/11/25 11:09:34;;;;;;;11.90;2.58;;;21.10;99.90;;;;;;5031610;28;20033;-81
2022/11/25 11:12:26;;;;;;;11.75;2.58;;;21.20;99.90;;;;;;5030848;28;20466;-81
2022/11/25 11:15:20;;;;;;;13.65;2.63;;;21.20;99.90;;;;;;5031295;28;20026;-81
2022/11/25 11:17:56;;;;;;;13.05;3.00;;;21.20;99.90;;;;;;5014170;28;20037;-82
2022/11/25 11:20:43;;;;;;;14.40;2.42;;;21.30;99.90;;;;;;4999487;28;20044;-80
2022/11/25 11:23:13;;;;;;;16.48;2.42;;;21.10;99.90;;;;;;5044322;28;20056;-82
2022/11/25 11:25:56;;;;;;;12.10;2.25;;;20.90;99.90;;;;;;5093090;28;20104;-81
2022/11/25 11:28:31;;;;;;;11.20;2.42;;;20.70;99.90;;;;;;5093651;28;20107;-81
2022/11/25 11:31:07;;;;;;;11.05;2.22;;;20.60;99.90;;;;;;5093244;28;20023;-81
2022/11/25 11:33:42;;;;;;;14.13;2.67;;;20.70;99.90;;;;;;5084950;28;20038;-81
2022/11/25 11:36:24;;;;;;;13.90;2.78;;;20.80;99.90;;;;;;5074437;28;20097;-82
2022/11/25 11:39:01;;;;;;;13.00;2.40;;;20.70;99.90;;;;;;5113349;28;20039;-81
2022/11/25 11:41:39;;;;;;;11.85;2.38;;;20.50;99.90;;;;;;5094358;28;20035;-81
2022/11/25 11:45:13;;;;;;;9.98;2.25;;;20.50;99.90;;;;;;5113054;28;20346;-81
2022/11/25 11:48:31;;;;;;;13.77;2.40;;;20.70;99.90;;;;;;5056452;28;20470;-81
2022/11/25 11:51:21;;;;;;;13.75;2.33;;;20.30;99.90;;;;;;5009738;28;20090;-82
2022/11/25 11:54:38;;;;;;;8.18;1.73;;;20.30;99.90;;;;;;5010337;28;20030;-83
2022/11/25 11:57:18;;;;;;;7.95;1.92;;;20.50;99.90;;;;;;4983180;28;20045;-84
2022/11/25 11:59:54;;;;;;;13.43;2.40;;;20.60;99.90;;;;;;4991094;28;20038;-83
2022/11/25 12:02:46;;;;;;;14.98;2.65;;;20.80;99.90;;;;;;4990791;28;20030;-82
2022/11/25 12:05:20;;;;;;;9.68;2.30;;;20.90;99.90;;;;;;4989828;28;20050;-83
2022/11/25 12:08:16;;;;;;;10.18;2.20;;;20.90;99.90;;;;;;4990167;28;20165;-83
2022/11/25 12:10:59;;;;;;;8.73;2.00;;;20.60;99.90;;;;;;4990537;28;20042;-83
2022/11/25 12:13:51;;;;;;;8.07;1.90;;;20.70;99.90;;;;;;4990430;28;20077;-83
2022/11/25 12:16:25;;;;;;;13.52;2.95;;;20.70;99.90;;;;;;4990522;28;20046;-85
2022/11/25 12:19:20;;;;;;;11.80;2.00;;;20.70;99.90;;;;;;5009833;28;20038;-84
2022/11/25 12:22:14;;;;;;;11.85;2.40;;;20.60;99.90;;;;;;5011265;28;20479;-84
2022/11/25 12:25:13;;;;;;;6.82;1.67;;;20.70;99.90;;;;;;5025693;28;20129;-84
2022/11/25 12:27:56;;;;;;;10.68;1.90;;;20.80;99.90;;;;;;5083351;28;20032;-85
2022/11/25 12:30:35;;;;;;;9.68;2.00;;;21.00;99.90;;;;;;5094344;28;20396;-83
2022/11/25 12:33:14;;;;;;;9.15;2.20;;;21.10;99.90;;;;;;5113217;28;20458;-84
2022/11/25 12:35:45;;;;;;;7.88;1.65;;;21.00;99.90;;;;;;5112687;28;20126;-83
2022/11/25 12:38:24;;;;;;;11.32;2.47;;;20.80;99.90;;;;;;5112624;28;20036;-85
2022/11/25 12:41:20;;;;;;;6.95;1.98;;;20.80;99.90;;;;;;5094703;28;20030;-85
2022/11/25 12:44:06;;;;;;;7.55;1.58;;;20.60;99.90;;;;;;5112837;28;20505;-85
2022/11/25 12:46:43;;;;;;;12.65;1.75;;;20.70;99.90;;;;;;5113935;28;20353;-83
2022/11/25 12:49:20;;;;;;;8.48;2.08;;;20.60;99.90;;;;;;5113769;28;20073;-87
2022/11/25 12:52:04;;;;;;;11.13;1.80;;;20.40;99.90;;;;;;5112909;28;20103;-86
2022/11/25 12:54:48;;;;;;;9.07;1.73;;;20.50;99.90;;;;;;5113669;28;20020;-86
2022/11/25 12:57:40;;;;;;;10.20;1.85;;;20.60;99.90;;;;;;5121320;28;20028;-86
2022/11/25 13:00:25;;;;;;;12.25;2.00;;;20.50;99.90;;;;;;5120132;28;20036;-85
2022/11/25 13:02:54;;;;;;;10.90;2.40;;;20.50;99.90;;;;;;5095126;28;20119;-85
2022/11/25 13:05:38;;;;;;;9.55;1.90;;;20.60;99.90;;;;;;5112855;28;20028;-85
2022/11/25 13:08:49;;;;;;;10.75;1.95;;;20.60;99.90;;;;;;5112921;28;20035;-85
2022/11/25 13:11:18;;;;;;;10.80;1.90;;;20.50;99.90;;;;;;5087167;28;20040;-88
2022/11/25 13:13:58;;;;;;;6.93;1.75;;;20.50;99.90;;;;;;5112475;28;20050;-89
2022/11/25 13:16:26;;;;;;;8.75;1.98;;;20.50;99.90;;;;;;5112880;28;20027;-88
2022/11/25 13:18:55;;;;;;;7.60;1.70;;;20.40;99.90;;;;;;5095892;28;20420;-89
2022/11/25 13:21:23;;;;;;;11.40;1.90;;;20.30;99.90;;;;;;5117011;28;20387;-89
2022/11/25 13:23:55;;;;;;;7.50;1.55;;;20.20;99.90;;;;;;5120057;27;20115;-89
2022/11/25 13:26:45;;;;;;;11.80;2.10;;;20.20;99.90;;;;;;5137572;27;20209;-89